首页
METAR-TAF:

METAR-TAF

机场 :

木尔坦国际机场

木爾坦, 巴基斯坦

纬度: 30-12-12N, 经度: 71-25-09E, 海拔: 122米

当前天气观测

该预报发布于58分钟前的01:00 UTC
风速14节,风向西南
温度 34°C
湿度 47%
气压 998 hPa
能見度: 4000
少量云层高于10000英尺
低吹尘

METAR: OPMT 170100Z 23014KT 4000 DRDU FEW100 34/21 Q0998 TEMPO 23015G25KT 3000 BLDU

时间: 06:58 (01:58 UTC)

预报

该预报发布于2小时和58分钟前的23:00 UTC
预报有效从17日的 00点(UTC)到 18日的 06点(UTC)
风速10节,风向西南
能見度: 4000
少量云层高于10000英尺
几率 30% :
短暂存在
从 17日的 03点(UTC)到 17日的 07点(UTC)
风速20节,风向西南
能見度: 2500
低吹尘
短暂存在
从 17日的 22点(UTC)到 18日的 02点(UTC)
风速15节,风向西南,有时为25节阵风
能見度: 2000
散云层高于10000英尺
高吹尘,

TAF: OPMT 162300Z 1700/1806 23010KT 4000 HZ FEW100 TN30/1701Z TX44/1710Z PROB30 TEMPO 1703/1707 23020KT 2500 DRDU NSC TEMPO 1722/1802 23015G25KT 2000 BLDU SCT100

超过4000个机场的气象观测和天气预报(METAR&TAF报告)。

可查询的气象台以黄色和红色小点在地图上表示。

将鼠标移到小点上方,可查看气象台名称。

然后点击查看天气观测和预报。

如需切换地图:点击带黑十字的绿色按钮放大地图;点击带横线的绿色按钮缩小地图;或者点击绿色箭头查看邻近地区的地图。


METAR-TAF: